Atlanta, Georgia
Traffic Map
Current Weather Conditions
Atlanta, Georgia
Scattered Clouds
Scattered Clouds
76°
Feels Like: 76°
Wind Chill: 76° Ceiling: Unl
Heat Index: 76° Visibility: 10mi
Dew Point: 61° Wind: 10mph
Humidity: 60% Direction: 160° (SSE)
Pressure: 30.32in Gusts: 0mph
Raw Report DataKATL 231952Z 16009KT 10SM SCT040 SCT055 24/16 A3032 RMK AO2 SLP261 T02440161
Traffic Incident Summary
Active as of:
Severity:
Category:
InformationThere was an issue retrieving the traffic information for this location. Please try a different location or try again shortly.
Advertisements